Time;durP1;ratioP1;P1;durP2;ratioP2;P2;SDS_P1;SDS_P2;PMS_P1;PMS_P2;Temp;Humidity;BMP_temperature;BMP_pressure;BME280_temperature;BME280_humidity;BME280_pressure;Samples;Min_cycle;Max_cycle;Signal;HPM_P1;HPM_P2
2022/04/21 00:00:06;;;;;;;19.23;5.68;;;32.60;22.20;;;;;;5068977;28;20061;-61
2022/04/21 00:02:33;;;;;;;6.70;2.20;;;32.70;21.80;;;;;;5066270;28;20075;-63
2022/04/21 00:05:00;;;;;;;10.20;2.05;;;32.60;21.70;;;;;;5066934;28;20064;-63
2022/04/21 00:07:26;;;;;;;12.10;2.35;;;32.60;22.70;;;;;;5069791;28;20099;-61
2022/04/21 00:09:53;;;;;;;7.38;2.03;;;32.30;22.50;;;;;;5070810;28;20060;-62
2022/04/21 00:12:19;;;;;;;13.65;2.20;;;32.20;22.90;;;;;;5067478;28;20431;-62
2022/04/21 00:14:46;;;;;;;17.83;2.88;;;32.20;23.30;;;;;;5065991;28;20073;-62
2022/04/21 00:17:13;;;;;;;22.10;2.55;;;32.00;23.30;;;;;;5066477;28;20222;-61
2022/04/21 00:19:39;;;;;;;15.90;3.75;;;31.90;23.50;;;;;;5068376;28;20427;-63
2022/04/21 00:24:50;;;;;;;12.30;2.97;;;31.80;23.70;;;;;;5068368;28;20132;-60
2022/04/21 00:27:17;;;;;;;19.73;2.95;;;31.60;23.70;;;;;;5084878;28;20067;-61
2022/04/21 00:29:46;;;;;;;10.85;2.40;;;31.40;23.80;;;;;;5067093;28;20082;-61
2022/04/21 00:32:13;;;;;;;11.77;2.40;;;31.40;24.20;;;;;;5067688;28;20098;-61
2022/04/21 00:34:40;;;;;;;9.30;1.98;;;31.10;24.40;;;;;;5069424;28;20179;-61
2022/04/21 00:37:06;;;;;;;9.77;2.05;;;31.00;24.60;;;;;;5066210;28;20084;-63
2022/04/21 00:39:33;;;;;;;7.63;1.40;;;31.10;24.80;;;;;;5068060;28;20086;-61
2022/04/21 00:42:01;;;;;;;7.70;2.17;;;30.90;24.70;;;;;;5067115;28;20101;-60
2022/04/21 00:44:29;;;;;;;11.40;2.30;;;30.90;25.10;;;;;;5071186;28;20148;-61
2022/04/21 00:47:00;;;;;;;9.38;2.30;;;31.00;24.70;;;;;;5070533;28;20090;-60
2022/04/21 00:49:28;;;;;;;11.07;2.00;;;31.00;24.70;;;;;;5088456;28;20064;-61
2022/04/21 00:51:55;;;;;;;14.50;2.83;;;30.90;24.80;;;;;;5084325;28;20458;-61
2022/04/21 00:54:22;;;;;;;14.75;2.15;;;30.90;25.10;;;;;;5070087;28;20481;-61
2022/04/21 00:56:49;;;;;;;7.20;1.92;;;30.70;25.40;;;;;;5072528;28;20812;-61
2022/04/21 00:59:16;;;;;;;16.98;2.05;;;30.70;25.30;;;;;;5068204;28;20120;-62
2022/04/21 01:04:28;;;;;;;18.10;2.78;;;30.60;25.30;;;;;;5068484;28;20167;-61
2022/04/21 01:06:56;;;;;;;9.40;2.42;;;30.50;25.00;;;;;;5069201;28;20145;-63
2022/04/21 01:09:22;;;;;;;12.82;2.42;;;30.30;25.20;;;;;;5083874;28;20091;-60
2022/04/21 01:11:50;;;;;;;22.75;2.70;;;30.20;25.40;;;;;;5063597;28;20093;-62
2022/04/21 01:14:18;;;;;;;14.48;2.58;;;30.00;25.60;;;;;;5069609;28;20090;-61
2022/04/21 01:16:46;;;;;;;8.77;1.88;;;29.90;25.50;;;;;;5068384;28;20141;-61
2022/04/21 01:19:12;;;;;;;15.85;2.38;;;29.90;25.30;;;;;;5068076;28;20131;-62
2022/04/21 01:21:38;;;;;;;15.70;2.33;;;29.90;25.20;;;;;;5071358;28;20073;-61
2022/04/21 01:24:05;;;;;;;13.23;2.80;;;29.90;25.10;;;;;;5068366;28;20155;-61
2022/04/21 01:26:35;;;;;;;12.13;2.90;;;29.90;24.90;;;;;;5083892;28;20085;-61
2022/04/21 01:29:05;;;;;;;17.35;2.42;;;29.70;24.80;;;;;;5085162;28;20132;-62
2022/04/21 01:31:31;;;;;;;19.75;2.60;;;29.50;24.90;;;;;;5069111;28;20123;-60
2022/04/21 01:33:58;;;;;;;21.42;2.72;;;29.20;24.90;;;;;;5083749;28;20103;-62
2022/04/21 01:36:25;;;;;;;27.95;2.47;;;29.10;25.10;;;;;;5072472;28;20104;-62
2022/04/21 01:41:36;;;;;;;22.05;3.00;;;28.80;24.80;;;;;;5071923;28;20453;-62
2022/04/21 01:44:03;;;;;;;30.17;2.63;;;28.70;24.90;;;;;;5073111;28;20113;-56
2022/04/21 01:46:29;;;;;;;24.88;3.33;;;28.70;25.10;;;;;;5077867;28;20156;-61
2022/04/21 01:48:56;;;;;;;11.73;2.78;;;28.60;25.10;;;;;;5053596;28;20075;-61
2022/04/21 01:51:22;;;;;;;35.95;3.05;;;28.40;25.20;;;;;;5071047;28;20083;-60
2022/04/21 01:53:49;;;;;;;16.88;2.33;;;28.30;25.20;;;;;;5070231;28;20160;-61
2022/04/21 01:56:16;;;;;;;45.50;3.63;;;28.20;25.30;;;;;;5086801;28;20599;-61
2022/04/21 01:58:44;;;;;;;19.73;2.63;;;28.20;25.40;;;;;;5070040;28;20114;-61
2022/04/21 02:01:11;;;;;;;22.48;2.58;;;28.10;25.40;;;;;;5069761;28;20167;-61
2022/04/21 02:03:38;;;;;;;14.05;2.42;;;27.90;25.50;;;;;;5087778;28;20514;-61
2022/04/21 02:06:04;;;;;;;21.73;2.63;;;27.90;25.70;;;;;;5069240;28;20096;-61
2022/04/21 02:08:31;;;;;;;9.27;2.90;;;27.80;25.90;;;;;;5072427;28;20076;-61
2022/04/21 02:10:58;;;;;;;20.92;2.58;;;27.70;25.90;;;;;;5067206;28;20167;-61
2022/04/21 02:13:24;;;;;;;10.82;2.40;;;27.70;26.20;;;;;;5068844;28;20117;-61
2022/04/21 02:15:50;;;;;;;16.23;2.08;;;27.60;26.30;;;;;;5086513;28;20076;-61
2022/04/21 02:18:17;;;;;;;17.40;2.00;;;27.60;27.00;;;;;;5070114;28;20507;-61
2022/04/21 02:20:43;;;;;;;11.52;2.40;;;27.50;26.70;;;;;;5067499;28;20080;-60
2022/04/21 02:23:10;;;;;;;20.38;2.50;;;27.30;27.00;;;;;;5069874;28;20159;-61
2022/04/21 02:25:36;;;;;;;15.55;2.70;;;27.30;27.10;;;;;;5087083;28;20096;-61
2022/04/21 02:28:02;;;;;;;23.35;3.47;;;27.20;27.20;;;;;;5070844;28;20130;-64
2022/04/21 02:30:29;;;;;;;16.05;2.53;;;27.10;27.20;;;;;;5072445;28;20564;-62
2022/04/21 02:32:55;;;;;;;23.15;2.72;;;27.00;27.30;;;;;;5053749;28;20142;-62
2022/04/21 02:35:22;;;;;;;15.55;2.63;;;27.00;27.50;;;;;;5052825;28;20162;-62
2022/04/21 02:37:48;;;;;;;25.67;3.00;;;27.00;27.60;;;;;;5069837;28;20097;-62
2022/04/21 02:40:16;;;;;;;30.63;3.67;;;26.90;27.80;;;;;;5086526;28;20465;-62
2022/04/21 02:42:42;;;;;;;11.63;2.63;;;26.80;27.90;;;;;;5068484;28;20068;-63
2022/04/21 02:45:11;;;;;;;27.75;3.83;;;26.70;28.10;;;;;;5070703;28;20074;-60
2022/04/21 02:47:45;;;;;;;21.52;2.88;;;26.60;28.20;;;;;;5069599;28;20449;-62
2022/04/21 02:50:14;;;;;;;17.33;2.80;;;26.60;28.40;;;;;;5070388;28;20083;-61
2022/04/21 02:52:42;;;;;;;18.33;3.47;;;26.60;28.60;;;;;;5069355;28;20113;-61
2022/04/21 02:57:56;;;;;;;13.18;3.15;;;26.40;29.60;;;;;;5069863;28;20140;-60
2022/04/21 03:00:22;;;;;;;16.17;2.25;;;26.30;29.50;;;;;;5071710;28;20452;-64
2022/04/21 03:02:49;;;;;;;16.40;2.60;;;26.30;29.80;;;;;;5070257;28;20621;-61
2022/04/21 03:05:16;;;;;;;14.48;2.63;;;26.20;30.00;;;;;;5068814;28;20072;-64
2022/04/21 03:07:43;;;;;;;12.73;2.65;;;26.10;30.00;;;;;;5070738;28;20071;-60
2022/04/21 03:10:10;;;;;;;17.95;3.28;;;26.10;30.20;;;;;;5085728;28;20422;-61
2022/04/21 03:12:36;;;;;;;15.60;2.83;;;26.10;30.40;;;;;;5081881;28;20075;-61
2022/04/21 03:15:03;;;;;;;14.30;2.88;;;26.10;30.50;;;;;;5070772;28;20089;-61
2022/04/21 03:17:32;;;;;;;20.02;3.30;;;26.00;30.60;;;;;;5069174;28;20096;-61
2022/04/21 03:19:58;;;;;;;17.85;3.67;;;25.90;30.80;;;;;;5069246;28;20069;-60
2022/04/21 03:25:12;;;;;;;11.70;2.72;;;25.90;31.20;;;;;;5070223;28;20075;-61
2022/04/21 03:27:38;;;;;;;18.33;2.88;;;25.80;31.30;;;;;;5053023;28;20073;-61
2022/04/21 03:30:06;;;;;;;19.77;3.08;;;25.80;31.30;;;;;;5085703;28;20163;-61
2022/04/21 03:32:33;;;;;;;19.77;2.95;;;25.80;31.40;;;;;;5082199;28;20501;-63
2022/04/21 03:35:00;;;;;;;27.30;2.97;;;25.70;31.40;;;;;;5067699;28;20565;-61
2022/04/21 03:37:27;;;;;;;24.33;2.70;;;25.60;31.40;;;;;;5067911;28;20550;-62
2022/04/21 03:39:54;;;;;;;16.95;2.90;;;25.60;31.50;;;;;;5064331;28;20068;-64
2022/04/21 03:42:26;;;;;;;18.33;3.17;;;25.60;32.10;;;;;;5069183;28;20075;-62
2022/04/21 03:44:53;;;;;;;13.00;3.10;;;25.50;31.70;;;;;;5067424;28;20150;-61
2022/04/21 03:47:21;;;;;;;18.20;2.97;;;25.50;31.50;;;;;;5067949;28;20659;-60
2022/04/21 03:49:47;;;;;;;19.48;3.22;;;25.60;31.40;;;;;;5067964;28;20076;-61
2022/04/21 03:52:14;;;;;;;14.30;3.42;;;25.50;31.20;;;;;;5084394;28;20482;-63
2022/04/21 03:54:41;;;;;;;21.58;4.13;;;25.50;31.20;;;;;;5067376;28;20075;-61
2022/04/21 03:57:08;;;;;;;10.85;2.70;;;25.40;31.20;;;;;;5084877;28;20084;-60
2022/04/21 03:59:34;;;;;;;18.65;2.85;;;25.40;31.30;;;;;;5049416;28;20080;-61
2022/04/21 04:02:04;;;;;;;15.77;2.90;;;25.40;31.50;;;;;;5084628;28;20089;-63
2022/04/21 04:04:32;;;;;;;18.92;3.47;;;25.30;31.60;;;;;;5036359;28;20086;-65
2022/04/21 04:12:33;;;;;;;27.27;4.45;;;25.20;32.30;;;;;;5067682;28;20137;-62
2022/04/21 04:15:00;;;;;;;29.92;4.50;;;25.10;32.20;;;;;;5049302;28;20503;-62
2022/04/21 04:17:27;;;;;;;13.23;2.90;;;25.10;32.10;;;;;;5067415;28;20187;-62
2022/04/21 04:19:54;;;;;;;69.13;6.60;;;25.10;32.10;;;;;;5080254;28;20090;-59
2022/04/21 04:22:20;;;;;;;50.25;5.57;;;25.10;32.10;;;;;;5069750;28;20098;-60
2022/04/21 04:24:47;;;;;;;26.13;3.53;;;25.10;32.20;;;;;;5067778;28;20117;-62
2022/04/21 04:27:13;;;;;;;24.15;3.38;;;25.10;32.40;;;;;;5051232;28;20079;-64
2022/04/21 04:29:40;;;;;;;38.30;3.88;;;25.10;32.50;;;;;;5067578;28;20068;-60
2022/04/21 04:32:06;;;;;;;36.03;3.50;;;25.00;32.70;;;;;;5067430;28;20068;-59
2022/04/21 04:34:36;;;;;;;18.63;3.22;;;24.90;32.90;;;;;;5050146;28;20103;-62
2022/04/21 04:37:02;;;;;;;15.65;3.10;;;24.80;33.10;;;;;;5067000;28;20092;-61
2022/04/21 04:39:29;;;;;;;20.35;2.90;;;24.60;33.40;;;;;;5085171;28;20446;-63
2022/04/21 04:44:40;;;;;;;22.95;2.58;;;24.50;34.90;;;;;;5067298;28;20210;-61
2022/04/21 04:47:06;;;;;;;16.77;2.70;;;24.40;35.40;;;;;;5069012;28;20119;-61
2022/04/21 04:49:33;;;;;;;16.85;2.88;;;24.30;35.60;;;;;;5083670;28;20542;-62
2022/04/21 04:51:59;;;;;;;16.25;2.70;;;24.30;35.50;;;;;;5083286;28;20076;-62
2022/04/21 04:54:27;;;;;;;17.25;2.90;;;24.20;35.50;;;;;;5084212;28;20087;-63
2022/04/21 04:56:54;;;;;;;17.80;2.88;;;24.30;35.50;;;;;;5084322;28;20179;-64
2022/04/21 04:59:21;;;;;;;16.00;2.72;;;24.20;35.50;;;;;;5083798;28;20064;-62
2022/04/21 05:01:48;;;;;;;15.80;2.75;;;24.10;36.40;;;;;;5083826;28;20078;-62
2022/04/21 05:04:16;;;;;;;24.50;2.97;;;24.00;37.60;;;;;;5084561;28;20087;-61
2022/04/21 05:06:51;;;;;;;14.23;2.72;;;23.90;37.20;;;;;;5083805;28;20078;-60
2022/04/21 05:09:19;;;;;;;15.07;2.85;;;23.90;37.10;;;;;;5063619;28;20363;-60
2022/04/21 05:11:48;;;;;;;26.92;3.90;;;23.80;37.10;;;;;;5071156;28;20411;-61
2022/04/21 05:14:15;;;;;;;20.23;2.72;;;23.70;37.20;;;;;;5071653;28;20107;-60
2022/04/21 05:16:42;;;;;;;16.23;2.70;;;23.60;37.40;;;;;;5070630;28;20091;-62
2022/04/21 05:19:09;;;;;;;16.60;2.92;;;23.50;37.50;;;;;;5070900;28;20079;-61
2022/04/21 05:21:38;;;;;;;11.48;2.90;;;23.40;37.60;;;;;;5071610;28;20075;-62
2022/04/21 05:24:05;;;;;;;14.85;2.70;;;23.40;37.60;;;;;;5071122;28;20071;-61
2022/04/21 05:26:32;;;;;;;12.77;2.33;;;23.40;37.50;;;;;;5087501;28;20075;-61
2022/04/21 05:30:55;;;;;;;15.20;2.35;;;23.30;37.40;;;;;;5087158;28;20121;-59
2022/04/21 05:31:57;;;;;;;9.73;2.50;;;23.30;37.20;;;;;;5075550;28;21063;-60
2022/04/21 05:34:24;;;;;;;15.25;2.47;;;23.30;37.10;;;;;;5070176;28;20100;-61
2022/04/21 05:36:51;;;;;;;15.20;2.55;;;23.20;37.60;;;;;;5086124;28;20504;-63
2022/04/21 05:39:18;;;;;;;9.77;2.38;;;23.20;37.00;;;;;;5070972;28;20113;-62
2022/04/21 05:41:44;;;;;;;19.35;2.45;;;23.20;36.70;;;;;;5054363;28;20141;-61
2022/04/21 05:44:12;;;;;;;13.15;2.00;;;23.10;36.80;;;;;;5053613;28;20076;-62
2022/04/21 05:46:38;;;;;;;13.05;2.17;;;23.10;36.50;;;;;;5071479;28;20083;-61
2022/04/21 05:49:05;;;;;;;13.20;2.45;;;23.00;36.40;;;;;;5053685;28;20084;-63
2022/04/21 05:51:32;;;;;;;9.82;2.47;;;23.10;36.40;;;;;;5073402;28;20102;-61
2022/04/21 05:54:02;;;;;;;12.25;2.33;;;23.00;36.20;;;;;;5086887;28;20094;-60
2022/04/21 05:56:28;;;;;;;10.57;1.92;;;23.00;35.90;;;;;;5053996;28;20114;-60
2022/04/21 05:58:55;;;;;;;11.68;2.17;;;23.00;35.80;;;;;;5069720;28;20205;-60
2022/04/21 06:01:21;;;;;;;8.13;2.00;;;23.00;35.80;;;;;;5052937;28;20079;-60
2022/04/21 06:03:47;;;;;;;17.25;2.20;;;23.00;35.80;;;;;;5035685;28;20534;-60
2022/04/21 06:06:14;;;;;;;6.07;2.03;;;22.90;35.80;;;;;;5069778;28;20094;-60
2022/04/21 06:08:40;;;;;;;14.80;2.00;;;22.90;35.80;;;;;;5069545;28;20084;-61
2022/04/21 06:11:07;;;;;;;13.48;2.15;;;22.90;35.80;;;;;;5069845;28;20212;-61
2022/04/21 06:13:34;;;;;;;8.40;2.22;;;22.90;35.90;;;;;;5069727;28;20528;-61
2022/04/21 06:16:00;;;;;;;14.25;2.35;;;22.80;36.10;;;;;;5085882;28;20441;-60
2022/04/21 06:18:27;;;;;;;9.13;2.08;;;22.80;36.30;;;;;;5069797;28;20084;-61
2022/04/21 06:20:54;;;;;;;10.10;2.28;;;22.80;36.60;;;;;;5071834;28;20096;-62
2022/04/21 06:23:21;;;;;;;11.68;2.25;;;22.70;36.80;;;;;;5055651;28;20067;-63
2022/04/21 06:25:48;;;;;;;6.45;2.00;;;22.70;37.00;;;;;;5053083;28;20166;-61
2022/04/21 06:28:18;;;;;;;9.32;2.40;;;22.70;37.20;;;;;;5069508;28;20080;-61
2022/04/21 06:30:44;;;;;;;12.20;2.08;;;22.80;37.30;;;;;;5069402;28;20166;-63
2022/04/21 06:33:11;;;;;;;8.32;2.10;;;22.70;37.30;;;;;;5070327;28;20099;-62
2022/04/21 06:35:37;;;;;;;13.45;2.53;;;22.50;37.60;;;;;;5068560;28;20487;-60
2022/04/21 06:38:04;;;;;;;8.38;1.88;;;22.50;38.30;;;;;;5070108;28;20088;-61
2022/04/21 06:40:31;;;;;;;10.80;2.13;;;22.40;38.80;;;;;;5086085;28;20102;-61
2022/04/21 06:43:01;;;;;;;10.73;1.90;;;22.30;39.30;;;;;;5086016;28;20071;-60
2022/04/21 06:48:13;;;;;;;8.45;1.60;;;22.30;39.60;;;;;;5069622;28;20090;-61
2022/04/21 06:50:40;;;;;;;10.68;2.20;;;22.20;39.50;;;;;;5068614;28;20094;-60
2022/04/21 06:53:08;;;;;;;10.65;2.20;;;22.10;39.70;;;;;;5086324;28;20072;-61
2022/04/21 06:55:35;;;;;;;15.68;2.40;;;22.00;39.70;;;;;;5075524;28;20402;-61
2022/04/21 06:58:02;;;;;;;9.27;2.25;;;22.00;39.90;;;;;;5070080;28;20084;-63
2022/04/21 07:00:29;;;;;;;12.05;2.00;;;21.80;40.10;;;;;;5070133;28;20116;-61
2022/04/21 07:02:57;;;;;;;11.02;2.20;;;21.80;40.40;;;;;;5068630;28;20068;-62
2022/04/21 07:05:25;;;;;;;11.25;2.40;;;21.70;40.70;;;;;;5070323;28;20072;-61
2022/04/21 07:07:52;;;;;;;7.32;1.90;;;21.60;41.00;;;;;;5068237;28;20080;-62
2022/04/21 07:10:21;;;;;;;9.48;2.00;;;21.60;41.30;;;;;;5085510;28;20072;-61
2022/04/21 07:12:48;;;;;;;9.85;2.10;;;21.60;41.40;;;;;;5068704;28;20162;-61
2022/04/21 07:15:15;;;;;;;9.95;2.10;;;21.60;41.50;;;;;;5069042;28;20183;-61
2022/04/21 07:17:42;;;;;;;5.43;1.52;;;21.60;41.70;;;;;;5069522;28;20076;-60
2022/04/21 07:20:11;;;;;;;9.95;1.75;;;21.50;41.70;;;;;;5068944;28;20072;-60
2022/04/21 07:22:38;;;;;;;7.95;1.95;;;21.50;41.70;;;;;;5084061;28;20437;-61
2022/04/21 07:25:08;;;;;;;11.07;2.13;;;21.40;41.70;;;;;;5051561;28;20096;-61
2022/04/21 07:27:35;;;;;;;9.18;2.10;;;21.30;41.60;;;;;;5085125;28;20081;-61
2022/04/21 07:30:02;;;;;;;10.55;2.17;;;21.40;41.60;;;;;;5085006;28;20083;-59
2022/04/21 07:32:28;;;;;;;15.57;2.10;;;21.40;41.40;;;;;;5067354;28;20591;-61
2022/04/21 07:34:55;;;;;;;10.45;2.10;;;21.50;41.30;;;;;;5085009;28;20202;-59
2022/04/21 07:37:21;;;;;;;12.52;2.33;;;21.50;40.50;;;;;;5069313;28;20566;-61
2022/04/21 07:39:47;;;;;;;8.73;2.03;;;21.50;40.20;;;;;;5068409;28;20738;-61
2022/04/21 07:42:14;;;;;;;6.95;2.10;;;21.50;40.10;;;;;;5051366;28;20087;-61
2022/04/21 07:44:40;;;;;;;8.40;1.80;;;21.50;39.90;;;;;;5066868;28;20200;-61
2022/04/21 07:47:08;;;;;;;14.18;2.63;;;21.50;39.60;;;;;;5064108;28;20078;-61
2022/04/21 07:49:48;;;;;;;8.25;2.20;;;21.60;39.60;;;;;;5051307;28;20118;-59
2022/04/21 07:55:23;;;;;;;5.68;1.90;;;21.60;38.90;;;;;;5075726;28;20146;-60
2022/04/21 07:57:51;;;;;;;10.48;2.28;;;21.70;38.60;;;;;;5084293;28;20088;-59
2022/04/21 08:00:18;;;;;;;10.65;1.52;;;21.70;38.70;;;;;;5068012;28;20441;-59
2022/04/21 08:02:46;;;;;;;6.55;1.42;;;21.70;38.50;;;;;;5068377;28;20068;-59
2022/04/21 08:05:15;;;;;;;10.25;1.92;;;21.70;38.30;;;;;;5084660;28;20157;-59
2022/04/21 08:07:42;;;;;;;9.60;1.60;;;21.70;39.00;;;;;;5066692;28;20072;-61
2022/04/21 08:10:10;;;;;;;9.40;2.22;;;21.70;38.30;;;;;;5067965;28;20076;-59
2022/04/21 08:12:51;;;;;;;7.20;1.65;;;21.70;38.20;;;;;;5067776;28;20541;-60
2022/04/21 08:15:29;;;;;;;4.65;1.55;;;21.70;38.00;;;;;;5067601;28;20179;-60
2022/04/21 08:18:01;;;;;;;8.65;1.67;;;21.70;37.70;;;;;;5068317;28;20088;-60
2022/04/21 08:20:29;;;;;;;6.82;1.40;;;21.70;37.80;;;;;;5069902;28;20121;-60
2022/04/21 08:22:57;;;;;;;8.23;1.75;;;21.70;37.90;;;;;;5069043;28;20064;-60
2022/04/21 08:33:37;;;;;;;8.30;1.92;;;21.60;37.50;;;;;;5067841;28;20074;-63
2022/04/21 08:36:05;;;;;;;7.07;1.60;;;21.60;37.60;;;;;;5068638;28;20086;-59
2022/04/21 08:38:33;;;;;;;11.57;1.40;;;21.60;37.50;;;;;;5069120;28;20096;-60
2022/04/21 08:41:05;;;;;;;5.20;1.40;;;21.50;37.40;;;;;;5051186;28;20100;-58
2022/04/21 08:43:33;;;;;;;5.90;1.20;;;21.50;37.30;;;;;;5066846;28;20111;-59
2022/04/21 08:46:02;;;;;;;5.45;1.73;;;21.50;37.20;;;;;;5068184;28;20076;-60
2022/04/21 08:48:28;;;;;;;7.22;1.48;;;21.40;37.10;;;;;;5070343;28;20075;-60
2022/04/21 08:50:55;;;;;;;6.70;1.60;;;21.40;37.20;;;;;;5055508;28;20100;-60
2022/04/21 08:53:26;;;;;;;4.68;1.27;;;21.40;37.30;;;;;;5054698;28;20164;-61
2022/04/21 08:55:53;;;;;;;11.90;1.80;;;21.30;37.50;;;;;;5071161;28;20094;-60
2022/04/21 08:58:20;;;;;;;7.18;1.42;;;21.30;37.80;;;;;;5088908;28;20606;-60
2022/04/21 09:00:47;;;;;;;8.02;1.42;;;21.30;38.00;;;;;;5092279;28;20154;-61
2022/04/21 09:03:15;;;;;;;6.28;1.40;;;21.30;38.20;;;;;;5072278;28;20071;-60
2022/04/21 09:05:41;;;;;;;6.72;1.30;;;21.20;38.30;;;;;;5071165;28;20518;-59
2022/04/21 09:08:26;;;;;;;11.30;1.80;;;21.10;38.50;;;;;;5088486;28;20076;-61
2022/04/21 09:11:22;;;;;;;10.75;1.63;;;21.10;38.60;;;;;;5071316;28;20138;-61
2022/04/21 09:13:58;;;;;;;5.00;1.58;;;21.10;38.30;;;;;;5049788;28;20138;-60
2022/04/21 09:16:34;;;;;;;7.68;1.45;;;21.10;38.30;;;;;;5050177;28;20080;-61
2022/04/21 09:19:03;;;;;;;9.00;1.50;;;21.10;38.10;;;;;;5049757;28;20085;-60
2022/04/21 09:21:40;;;;;;;10.63;2.53;;;21.10;37.90;;;;;;5049305;28;20996;-59
2022/04/21 09:24:26;;;;;;;7.82;2.20;;;21.10;37.70;;;;;;5049528;28;20123;-60
2022/04/21 09:26:56;;;;;;;13.10;2.50;;;21.10;37.80;;;;;;5057338;28;20072;-59
2022/04/21 09:29:30;;;;;;;9.38;1.92;;;21.10;38.20;;;;;;5033236;28;20147;-59
2022/04/21 09:32:02;;;;;;;5.35;1.38;;;21.10;38.70;;;;;;5049468;28;20116;-59
2022/04/21 09:34:29;;;;;;;7.10;1.33;;;21.10;38.90;;;;;;5049772;28;20138;-59
2022/04/21 09:36:59;;;;;;;6.03;1.33;;;21.00;39.10;;;;;;5033541;28;20187;-59
2022/04/21 09:39:27;;;;;;;11.25;1.67;;;20.90;39.70;;;;;;5001122;28;20163;-61
2022/04/21 09:41:54;;;;;;;9.60;1.80;;;20.90;40.10;;;;;;5033434;28;20100;-60
2022/04/21 09:47:21;;;;;;;9.18;1.63;;;20.80;40.80;;;;;;5033916;28;21375;-62
2022/04/21 09:49:48;;;;;;;10.88;1.73;;;20.70;41.10;;;;;;5045288;28;20080;-61
2022/04/21 09:52:30;;;;;;;6.40;1.50;;;20.60;41.90;;;;;;5071232;28;20449;-60
2022/04/21 09:54:57;;;;;;;13.15;2.60;;;20.60;42.30;;;;;;5069424;28;20115;-59
2022/04/21 09:57:30;;;;;;;10.13;2.60;;;20.50;42.50;;;;;;5053922;28;20539;-61
2022/04/21 09:59:58;;;;;;;9.85;2.75;;;20.50;42.60;;;;;;5088579;28;20100;-61
2022/04/21 10:02:29;;;;;;;7.90;2.25;;;20.50;42.20;;;;;;5071084;28;20100;-60
2022/04/21 10:04:56;;;;;;;11.70;1.92;;;20.40;42.00;;;;;;5069213;28;20449;-60
2022/04/21 10:07:24;;;;;;;7.60;2.15;;;20.30;42.30;;;;;;5054666;28;20143;-60
2022/04/21 10:09:51;;;;;;;4.30;1.40;;;20.30;42.20;;;;;;5087617;28;20103;-62
2022/04/21 10:12:18;;;;;;;6.32;1.58;;;20.30;42.60;;;;;;5070117;28;20530;-62
2022/04/21 10:14:47;;;;;;;10.82;1.63;;;20.30;42.60;;;;;;5070361;28;20096;-61
2022/04/21 10:17:13;;;;;;;4.38;1.40;;;20.20;42.80;;;;;;5071372;28;20550;-61
2022/04/21 10:19:40;;;;;;;8.95;1.60;;;20.10;42.70;;;;;;5054759;28;20079;-62
2022/04/21 10:22:13;;;;;;;7.13;1.60;;;20.00;42.90;;;;;;5037418;28;21055;-60
2022/04/21 10:24:41;;;;;;;7.57;1.60;;;20.00;43.30;;;;;;5070981;28;20103;-61
2022/04/21 10:27:36;;;;;;;5.53;1.42;;;20.00;43.30;;;;;;5070577;28;20088;-62
2022/04/21 10:30:10;;;;;;;5.65;1.38;;;19.90;43.70;;;;;;5087038;28;20083;-59
2022/04/21 10:32:51;;;;;;;4.22;1.38;;;19.90;43.10;;;;;;5053792;28;20533;-59
2022/04/21 10:35:20;;;;;;;5.60;1.73;;;19.80;43.00;;;;;;5037168;28;20115;-59
2022/04/21 10:37:47;;;;;;;4.18;1.55;;;19.70;43.10;;;;;;5037811;28;20628;-59
2022/04/21 10:40:21;;;;;;;8.32;1.75;;;19.60;43.30;;;;;;5084870;28;20067;-59
2022/04/21 10:42:58;;;;;;;7.00;1.83;;;19.70;43.70;;;;;;5086195;28;20104;-59
2022/04/21 10:45:26;;;;;;;6.95;1.55;;;19.60;43.70;;;;;;5068294;28;20693;-59
2022/04/21 10:48:05;;;;;;;4.45;1.50;;;19.50;43.80;;;;;;5083449;28;20230;-59
2022/04/21 10:50:33;;;;;;;8.85;1.70;;;19.50;43.40;;;;;;5072485;28;20646;-61
2022/04/21 10:58:36;;;;;;;8.85;1.63;;;19.50;43.20;;;;;;5068697;28;20106;-61
2022/04/21 11:01:09;;;;;;;9.20;1.42;;;19.40;43.00;;;;;;5090585;28;20163;-59
2022/04/21 11:03:37;;;;;;;6.55;1.83;;;19.40;43.00;;;;;;5070323;28;20156;-61
2022/04/21 11:06:40;;;;;;;11.75;2.13;;;19.40;42.90;;;;;;5067921;28;20088;-61
2022/04/21 11:09:07;;;;;;;8.15;1.67;;;19.40;42.20;;;;;;5072120;28;20144;-60
2022/04/21 11:11:47;;;;;;;7.65;1.63;;;19.40;40.80;;;;;;5036009;28;20076;-59
2022/04/21 11:14:32;;;;;;;5.57;1.70;;;19.50;40.20;;;;;;5074209;28;20084;-61
2022/04/21 11:17:08;;;;;;;8.25;2.20;;;19.60;39.90;;;;;;5086271;28;20095;-59
2022/04/21 11:19:36;;;;;;;9.02;1.80;;;19.60;39.20;;;;;;5070600;28;20426;-61
2022/04/21 11:22:08;;;;;;;5.85;1.58;;;19.70;38.50;;;;;;5068389;28;20076;-59
2022/04/21 11:25:07;;;;;;;5.68;2.10;;;19.70;37.50;;;;;;5067494;28;20072;-60
2022/04/21 11:27:40;;;;;;;7.45;1.50;;;19.70;36.80;;;;;;5030636;28;20092;-60
2022/04/21 11:30:14;;;;;;;11.50;2.13;;;19.70;36.00;;;;;;5015026;28;20089;-59
2022/04/21 11:32:52;;;;;;;9.30;1.70;;;19.80;35.80;;;;;;5031137;28;20077;-60
2022/04/21 11:35:24;;;;;;;5.13;1.63;;;19.80;35.70;;;;;;5031272;28;20112;-59
2022/04/21 11:37:58;;;;;;;6.72;2.05;;;19.80;35.70;;;;;;5015231;28;20109;-61
2022/04/21 11:40:37;;;;;;;9.55;1.95;;;19.80;35.70;;;;;;5052911;28;20091;-59
2022/04/21 11:43:11;;;;;;;9.70;2.03;;;19.70;35.90;;;;;;5030469;28;20085;-59
2022/04/21 11:45:40;;;;;;;7.15;1.98;;;19.80;36.30;;;;;;5031533;28;20554;-59
2022/04/21 11:48:14;;;;;;;8.40;1.83;;;19.80;36.40;;;;;;5030908;28;20441;-59
2022/04/21 11:50:46;;;;;;;6.97;1.77;;;19.70;36.30;;;;;;5027944;28;20885;-61
2022/04/21 11:53:15;;;;;;;12.23;1.60;;;19.70;36.70;;;;;;5038675;28;20084;-59
2022/04/21 11:55:42;;;;;;;13.35;2.28;;;19.70;36.70;;;;;;5031134;28;20072;-59
2022/04/21 11:58:08;;;;;;;13.32;2.53;;;19.70;36.70;;;;;;5031445;28;20084;-59
2022/04/21 12:08:52;;;;;;;9.90;1.60;;;19.50;37.40;;;;;;5072321;28;20134;-59
2022/04/21 12:11:21;;;;;;;9.88;2.05;;;19.50;37.10;;;;;;5051745;28;20438;-59
2022/04/21 12:13:49;;;;;;;9.45;2.10;;;19.50;37.50;;;;;;5085480;28;20096;-62
2022/04/21 12:16:37;;;;;;;8.75;2.20;;;19.50;37.50;;;;;;5069024;28;20072;-59
2022/04/21 12:19:13;;;;;;;10.82;1.90;;;19.50;37.30;;;;;;5068158;28;20392;-61
2022/04/21 12:21:41;;;;;;;12.32;2.85;;;19.40;37.50;;;;;;5069605;28;20092;-59
2022/04/21 12:24:20;;;;;;;8.48;1.63;;;19.30;37.80;;;;;;5051713;28;20083;-59
2022/04/21 12:26:51;;;;;;;15.18;2.78;;;19.20;38.10;;;;;;5068294;28;20076;-59
2022/04/21 12:29:19;;;;;;;8.95;2.20;;;19.20;38.90;;;;;;5085088;28;20099;-59
2022/04/21 12:31:54;;;;;;;13.25;2.17;;;19.20;39.10;;;;;;5084304;28;20077;-58
2022/04/21 12:34:28;;;;;;;15.07;2.28;;;19.10;39.10;;;;;;5068496;28;20153;-59
2022/04/21 12:37:05;;;;;;;12.80;2.40;;;19.00;39.20;;;;;;5051045;28;20095;-62
2022/04/21 12:39:32;;;;;;;;;;;18.90;39.30;;;;;;5052664;28;20072;-59
2022/04/21 12:42:00;;;;;;;15.48;2.10;;;18.90;39.50;;;;;;5066895;28;20414;-60
2022/04/21 12:44:26;;;;;;;10.48;2.60;;;18.90;39.60;;;;;;5068757;28;20164;-61
2022/04/21 12:47:05;;;;;;;13.77;3.40;;;18.80;40.00;;;;;;5084086;28;20155;-61
2022/04/21 12:49:49;;;;;;;8.77;2.38;;;18.90;40.30;;;;;;5051063;28;20430;-61
2022/04/21 12:52:40;;;;;;;10.45;2.35;;;18.70;40.20;;;;;;5081920;28;20076;-61
2022/04/21 12:55:10;;;;;;;15.07;2.70;;;18.70;40.80;;;;;;5051241;28;20069;-59
2022/04/21 12:57:39;;;;;;;15.55;3.22;;;18.60;40.50;;;;;;5084543;28;20088;-60
2022/04/21 13:00:08;;;;;;;12.63;3.20;;;18.60;41.00;;;;;;5049789;28;20130;-60
2022/04/21 13:02:34;;;;;;;12.52;3.55;;;18.50;40.50;;;;;;5068124;28;20137;-59
2022/04/21 13:05:01;;;;;;;17.58;3.83;;;18.50;40.70;;;;;;5084096;28;20105;-59
2022/04/21 13:07:28;;;;;;;22.30;3.78;;;18.50;41.50;;;;;;5067532;28;20180;-59
2022/04/21 13:09:55;;;;;;;22.80;3.83;;;18.50;41.50;;;;;;5051948;28;20092;-59
2022/04/21 13:12:21;;;;;;;17.30;3.53;;;18.60;41.50;;;;;;5067787;28;20103;-60
2022/04/21 13:14:47;;;;;;;28.20;3.92;;;18.50;41.30;;;;;;5068528;28;20104;-62
2022/04/21 13:17:14;;;;;;;;;;;18.50;42.40;;;;;;5069000;28;20127;-59
2022/04/21 13:19:40;;;;;;;21.88;3.70;;;18.40;41.40;;;;;;5067720;28;20010;-59
2022/04/21 13:22:06;;;;;;;32.92;4.80;;;18.40;41.90;;;;;;5085438;28;20081;-59
2022/04/21 13:24:33;;;;;;;29.52;4.78;;;18.40;41.80;;;;;;5050102;28;20579;-60
2022/04/21 13:27:01;;;;;;;44.80;6.53;;;18.50;42.30;;;;;;5069265;28;20171;-60
2022/04/21 13:29:28;;;;;;;42.88;9.00;;;18.50;42.90;;;;;;5067368;28;20092;-59
2022/04/21 13:34:39;;;;;;;45.75;8.52;;;18.50;44.00;;;;;;5071722;28;20513;-59
2022/04/21 13:37:05;;;;;;;46.22;9.18;;;18.50;44.30;;;;;;5070229;28;20130;-59
2022/04/21 13:39:34;;;;;;;53.72;9.07;;;18.50;44.60;;;;;;5070844;28;20072;-59
2022/04/21 13:42:01;;;;;;;62.40;10.13;;;18.50;45.40;;;;;;5070516;28;20076;-59
2022/04/21 13:44:28;;;;;;;49.97;11.07;;;18.50;45.60;;;;;;5054998;28;20554;-61